createdAt,value
2018-06-22T00:02:13.335Z,90.40
2018-06-22T00:04:42.291Z,90.70
2018-06-22T00:07:11.105Z,90.70
2018-06-22T00:09:39.713Z,90.80
2018-06-22T00:12:08.266Z,90.80
2018-06-22T00:14:36.873Z,90.90
2018-06-22T00:17:05.423Z,90.90
2018-06-22T00:19:33.948Z,91.10
2018-06-22T00:22:02.496Z,90.70
2018-06-22T00:24:31.053Z,91.20
2018-06-22T00:26:59.555Z,91.30
2018-06-22T00:29:28.263Z,91.40
2018-06-22T00:31:57.075Z,91.80
2018-06-22T00:34:25.918Z,91.90
2018-06-22T00:36:54.753Z,91.60
2018-06-22T00:39:23.426Z,91.70
2018-06-22T00:41:51.955Z,91.80
2018-06-22T00:44:20.919Z,92.10
2018-06-22T00:46:49.434Z,91.80
2018-06-22T00:49:18.156Z,91.80
2018-06-22T00:51:46.986Z,91.70
2018-06-22T00:54:17.121Z,91.80
2018-06-22T00:56:46.514Z,92.10
2018-06-22T00:59:15.353Z,92.20
2018-06-22T01:01:44.224Z,93.10
2018-06-22T01:04:13.083Z,93.30
2018-06-22T01:06:41.916Z,93.60
2018-06-22T01:09:12.313Z,93.70
2018-06-22T01:11:41.153Z,93.80
2018-06-22T01:14:10.019Z,93.80
2018-06-22T01:16:38.951Z,94.00
2018-06-22T01:19:08.281Z,94.20
2018-06-22T01:21:37.166Z,94.20
2018-06-22T01:24:06.477Z,94.30
2018-06-22T01:26:35.323Z,94.30
2018-06-22T01:29:10.066Z,94.30
2018-06-22T01:31:38.555Z,94.20
2018-06-22T01:34:07.096Z,94.20
2018-06-22T01:36:35.596Z,94.30
2018-06-22T01:39:06.608Z,93.90
2018-06-22T01:41:35.113Z,93.60
2018-06-22T01:44:03.693Z,93.60
2018-06-22T01:46:32.566Z,94.00
2018-06-22T01:49:01.295Z,93.70
2018-06-22T01:51:30.130Z,93.80
2018-06-22T01:53:58.975Z,94.10
2018-06-22T01:56:27.803Z,94.10
2018-06-22T01:58:56.630Z,94.30
2018-06-22T02:01:25.446Z,94.30
2018-06-22T02:03:54.640Z,94.20
2018-06-22T02:06:23.520Z,94.50
2018-06-22T02:08:52.361Z,94.70
2018-06-22T02:13:49.770Z,95.10
2018-06-22T02:16:18.619Z,95.50
2018-06-22T02:18:47.328Z,95.60
2018-06-22T02:21:15.916Z,95.70
2018-06-22T02:23:44.466Z,95.80
2018-06-22T02:26:12.964Z,95.80
2018-06-22T02:28:41.690Z,95.70
2018-06-22T02:31:10.547Z,95.30
2018-06-22T02:33:39.377Z,95.50
2018-06-22T02:36:08.216Z,95.90
2018-06-22T02:38:36.816Z,96.10
2018-06-22T02:41:06.260Z,96.10
2018-06-22T02:43:35.347Z,96.10
2018-06-22T02:46:04.048Z,96.30
2018-06-22T02:48:32.615Z,96.00
2018-06-22T02:51:01.432Z,95.90
2018-06-22T02:53:30.044Z,95.80
2018-06-22T02:55:58.553Z,96.20
2018-06-22T02:58:27.113Z,96.50
2018-06-22T03:00:55.633Z,96.50
2018-06-22T03:03:24.173Z,96.60
2018-06-22T03:05:52.671Z,96.70
2018-06-22T03:08:21.242Z,96.80
2018-06-22T03:10:49.801Z,96.70
2018-06-22T03:13:18.617Z,96.60
2018-06-22T03:15:47.301Z,96.60
2018-06-22T03:18:15.820Z,96.40
2018-06-22T03:20:44.551Z,96.60
2018-06-22T03:23:13.383Z,96.70
2018-06-22T03:25:42.296Z,96.80
2018-06-22T03:28:11.112Z,97.10
2018-06-22T03:30:39.935Z,97.10
2018-06-22T03:33:08.788Z,97.20
2018-06-22T03:35:37.630Z,97.10
2018-06-22T03:38:07.305Z,96.90
2018-06-22T03:40:36.150Z,97.10
2018-06-22T03:43:05.495Z,97.10
2018-06-22T03:45:34.353Z,97.10
2018-06-22T03:48:03.221Z,97.20
2018-06-22T03:50:31.898Z,97.20
2018-06-22T03:53:00.508Z,97.10
2018-06-22T03:55:29.270Z,97.00
2018-06-22T03:57:57.870Z,97.10
2018-06-22T04:00:26.531Z,97.00
2018-06-22T04:02:55.127Z,96.90
2018-06-22T04:05:23.701Z,97.00
2018-06-22T04:07:52.201Z,96.90
2018-06-22T04:10:21.035Z,96.80
2018-06-22T04:12:49.887Z,96.90
2018-06-22T04:15:18.686Z,96.80
2018-06-22T04:17:50.203Z,96.80
2018-06-22T04:20:20.008Z,96.80
2018-06-22T04:22:48.906Z,96.30
2018-06-22T04:25:18.421Z,96.00
2018-06-22T04:27:47.115Z,95.10
2018-06-22T04:30:15.978Z,94.50
2018-06-22T04:32:44.883Z,94.10
2018-06-22T04:35:13.525Z,94.00
2018-06-22T04:37:42.056Z,94.10
2018-06-22T04:40:10.838Z,94.30
2018-06-22T04:42:39.720Z,94.20
2018-06-22T04:45:08.578Z,94.20
2018-06-22T04:47:37.420Z,94.10
2018-06-22T04:50:06.320Z,93.30
2018-06-22T04:52:35.203Z,93.00
2018-06-22T04:55:04.047Z,92.60
2018-06-22T04:57:33.028Z,91.30
2018-06-22T05:00:01.643Z,91.10
2018-06-22T05:02:30.196Z,91.40
2018-06-22T05:04:58.755Z,90.50
2018-06-22T05:09:55.871Z,90.00
2018-06-22T05:12:24.750Z,90.20
2018-06-22T05:14:53.663Z,91.00
2018-06-22T05:17:22.583Z,91.10
2018-06-22T05:19:51.244Z,90.60
2018-06-22T05:22:19.811Z,89.20
2018-06-22T05:24:48.390Z,88.70
2018-06-22T05:27:16.881Z,88.50
2018-06-22T05:29:45.436Z,88.20
2018-06-22T05:32:14.621Z,87.00
2018-06-22T05:34:43.182Z,87.00
2018-06-22T05:37:11.724Z,86.80
2018-06-22T05:39:40.303Z,85.60
2018-06-22T05:42:09.128Z,84.80
2018-06-22T05:44:37.715Z,83.90
2018-06-22T05:47:06.258Z,84.60
2018-06-22T05:49:34.926Z,84.20
2018-06-22T05:52:03.583Z,83.60
2018-06-22T05:54:32.238Z,81.80
2018-06-22T05:59:29.150Z,82.80
2018-06-22T06:01:57.722Z,82.30
2018-06-22T06:04:26.328Z,82.00
2018-06-22T06:06:54.937Z,82.80
2018-06-22T06:09:23.753Z,82.50
2018-06-22T06:11:52.973Z,83.50
2018-06-22T06:14:21.893Z,82.00
2018-06-22T06:16:50.817Z,80.80
2018-06-22T06:19:19.813Z,81.10
2018-06-22T06:21:48.713Z,82.30
2018-06-22T06:24:17.595Z,83.50
2018-06-22T06:26:46.460Z,83.40
2018-06-22T06:29:15.402Z,82.80
2018-06-22T06:31:44.352Z,82.50
2018-06-22T06:34:13.291Z,82.50
2018-06-22T06:36:42.298Z,82.80
2018-06-22T06:39:11.037Z,82.30
2018-06-22T06:41:39.723Z,82.50
2018-06-22T06:44:08.437Z,82.50
2018-06-22T06:46:36.936Z,82.60
2018-06-22T06:49:05.556Z,82.00
2018-06-22T06:51:34.103Z,82.00
2018-06-22T06:54:02.979Z,81.80
2018-06-22T06:56:31.524Z,81.90
2018-06-22T06:59:00.284Z,81.30
2018-06-22T07:01:29.214Z,81.40
2018-06-22T07:03:58.216Z,80.00
2018-06-22T07:06:27.061Z,79.20
2018-06-22T07:08:55.892Z,78.20
2018-06-22T07:11:24.896Z,77.60
2018-06-22T07:13:53.758Z,78.60
2018-06-22T07:16:22.666Z,79.70
2018-06-22T07:18:51.533Z,80.10
2018-06-22T07:21:21.244Z,79.00
2018-06-22T07:23:50.209Z,77.80
2018-06-22T07:26:19.186Z,76.10
2018-06-22T07:28:48.034Z,75.00
2018-06-22T07:31:16.941Z,74.60
2018-06-22T07:33:46.193Z,73.30
2018-06-22T07:36:15.244Z,74.80
2018-06-22T07:38:43.976Z,75.50
2018-06-22T07:41:12.526Z,75.10
2018-06-22T07:43:42.063Z,74.60
2018-06-22T07:46:10.687Z,75.70
2018-06-22T07:48:39.496Z,74.60
2018-06-22T07:51:09.009Z,74.50
2018-06-22T07:53:38.352Z,73.90
2018-06-22T07:56:07.203Z,74.70
2018-06-22T07:58:36.149Z,75.90
2018-06-22T08:01:05.067Z,74.70
2018-06-22T08:03:33.896Z,74.20
2018-06-22T08:06:02.749Z,75.10
2018-06-22T08:08:31.672Z,74.00
2018-06-22T08:11:00.593Z,74.00
2018-06-22T08:13:30.356Z,74.20
2018-06-22T08:15:59.242Z,73.80
2018-06-22T08:18:28.182Z,72.80
2018-06-22T08:20:57.038Z,71.60
2018-06-22T08:23:25.951Z,68.60
2018-06-22T08:25:54.884Z,68.00
2018-06-22T08:28:23.814Z,68.30
2018-06-22T08:30:52.771Z,68.70
2018-06-22T08:33:21.646Z,69.10
2018-06-22T08:35:50.548Z,69.20
2018-06-22T08:38:19.396Z,69.70
2018-06-22T08:40:48.444Z,69.90
2018-06-22T08:43:17.281Z,71.00
2018-06-22T08:45:46.263Z,71.30
2018-06-22T08:48:14.893Z,71.50
2018-06-22T08:50:43.539Z,71.50
2018-06-22T08:53:13.041Z,70.80
2018-06-22T08:55:41.666Z,70.50
2018-06-22T08:58:10.465Z,70.30
2018-06-22T09:00:39.369Z,70.20
2018-06-22T09:03:09.308Z,69.20
2018-06-22T09:05:38.311Z,68.70
2018-06-22T09:08:13.036Z,68.00
2018-06-22T09:10:43.858Z,67.70
2018-06-22T09:13:13.007Z,67.80
2018-06-22T09:15:42.024Z,65.20
2018-06-22T09:18:11.119Z,64.80
2018-06-22T09:20:40.114Z,63.40
2018-06-22T09:23:09.244Z,61.80
2018-06-22T09:25:38.193Z,61.10
2018-06-22T09:28:06.835Z,60.90
2018-06-22T09:30:36.476Z,59.50
2018-06-22T09:33:05.114Z,62.30
2018-06-22T09:35:33.728Z,61.80
2018-06-22T09:38:02.403Z,63.30
2018-06-22T09:40:31.055Z,62.00
2018-06-22T09:42:59.714Z,61.30
2018-06-22T09:45:28.377Z,60.20
2018-06-22T09:47:57.376Z,59.60
2018-06-22T09:50:26.324Z,58.40
2018-06-22T09:52:55.300Z,58.50
2018-06-22T09:55:24.264Z,57.50
2018-06-22T09:57:53.041Z,57.70
2018-06-22T10:00:21.691Z,57.80
2018-06-22T10:02:50.425Z,56.50
2018-06-22T10:05:19.055Z,55.70
2018-06-22T10:07:47.671Z,56.00
2018-06-22T10:10:16.200Z,57.50
2018-06-22T10:12:44.863Z,58.60
2018-06-22T10:15:13.448Z,58.30
2018-06-22T10:17:42.318Z,58.20
2018-06-22T10:20:11.158Z,58.00
2018-06-22T10:22:40.168Z,56.90
2018-06-22T10:25:09.146Z,57.50
2018-06-22T10:27:38.556Z,56.60
2018-06-22T10:30:07.128Z,56.30
2018-06-22T10:32:35.703Z,56.80
2018-06-22T10:35:04.398Z,56.90
2018-06-22T10:37:33.044Z,55.20
2018-06-22T10:40:01.712Z,57.70
2018-06-22T10:42:30.295Z,56.80
2018-06-22T10:44:58.923Z,57.40
2018-06-22T10:47:27.888Z,57.90
2018-06-22T10:49:57.051Z,58.80
2018-06-22T10:52:26.036Z,57.30
2018-06-22T10:54:55.175Z,54.30
2018-06-22T10:57:24.031Z,53.70
2018-06-22T10:59:53.014Z,53.10
2018-06-22T11:02:21.643Z,52.70
2018-06-22T11:04:50.281Z,52.80
2018-06-22T11:07:19.334Z,53.70
2018-06-22T11:09:48.361Z,52.90
2018-06-22T11:12:17.276Z,53.10
2018-06-22T11:14:46.164Z,54.30
2018-06-22T11:17:15.104Z,54.20
2018-06-22T11:19:44.078Z,53.70
2018-06-22T11:22:12.949Z,54.00
2018-06-22T11:24:42.041Z,55.30
2018-06-22T11:27:10.931Z,55.60
2018-06-22T11:29:39.664Z,54.80
2018-06-22T11:32:08.623Z,56.10
2018-06-22T11:34:37.429Z,56.10
2018-06-22T11:37:06.556Z,52.60
2018-06-22T11:39:35.263Z,51.70
2018-06-22T11:42:04.031Z,51.00
2018-06-22T11:44:32.616Z,52.10
2018-06-22T11:47:01.896Z,51.30
2018-06-22T11:49:31.185Z,52.80
2018-06-22T11:52:00.344Z,52.10
2018-06-22T11:54:29.343Z,51.90
2018-06-22T11:56:58.201Z,51.10
2018-06-22T11:59:27.284Z,51.40
2018-06-22T12:01:55.855Z,51.70
2018-06-22T12:04:24.571Z,51.70
2018-06-22T12:06:53.787Z,52.20
2018-06-22T12:09:22.826Z,51.70
2018-06-22T12:11:51.874Z,51.20
2018-06-22T12:14:20.895Z,50.60
2018-06-22T12:16:49.942Z,51.10
2018-06-22T12:19:19.131Z,50.90
2018-06-22T12:21:48.107Z,52.20
2018-06-22T12:24:17.046Z,52.20
2018-06-22T12:26:46.202Z,50.10
2018-06-22T12:29:15.723Z,50.80
2018-06-22T12:31:44.655Z,47.90
2018-06-22T12:34:13.604Z,46.90
2018-06-22T12:36:42.741Z,43.30
2018-06-22T12:39:13.033Z,44.00
2018-06-22T12:41:42.728Z,45.60
2018-06-22T12:44:11.365Z,46.30
2018-06-22T12:46:40.160Z,47.30
2018-06-22T12:49:08.993Z,46.80
2018-06-22T12:51:37.782Z,43.60
2018-06-22T12:54:06.665Z,45.50
2018-06-22T12:56:35.588Z,46.70
2018-06-22T12:59:04.636Z,47.20
2018-06-22T13:01:33.597Z,45.00
2018-06-22T13:04:02.577Z,44.90
2018-06-22T13:06:31.520Z,43.20
2018-06-22T13:09:00.269Z,44.40
2018-06-22T13:11:28.991Z,43.90
2018-06-22T13:13:57.621Z,43.20
2018-06-22T13:16:26.424Z,44.70
2018-06-22T13:18:55.496Z,44.80
2018-06-22T13:21:24.476Z,45.80
2018-06-22T13:23:53.429Z,47.00
2018-06-22T13:28:51.157Z,47.10
2018-06-22T13:31:20.224Z,46.50
2018-06-22T13:36:17.649Z,43.20
2018-06-22T13:38:46.536Z,43.50
2018-06-22T13:41:15.478Z,46.40
2018-06-22T13:43:44.197Z,44.50
2018-06-22T13:46:13.144Z,44.30
2018-06-22T13:48:42.096Z,43.50
2018-06-22T13:51:11.198Z,43.00
2018-06-22T13:53:40.194Z,44.30
2018-06-22T13:56:08.951Z,43.70
2018-06-22T13:58:37.733Z,43.00
2018-06-22T14:01:06.560Z,43.20
2018-06-22T14:03:39.766Z,43.10
2018-06-22T14:06:14.061Z,43.70
2018-06-22T14:08:42.739Z,43.30
2018-06-22T14:11:11.392Z,40.40
2018-06-22T14:13:39.984Z,40.80
2018-06-22T14:16:08.923Z,42.60
2018-06-22T14:18:37.896Z,43.30
2018-06-22T14:21:07.031Z,43.20
2018-06-22T14:23:36.077Z,44.90
2018-06-22T14:26:05.461Z,46.70
2018-06-22T14:28:34.473Z,47.20
2018-06-22T14:31:03.556Z,48.60
2018-06-22T14:33:32.547Z,50.10
2018-06-22T14:36:01.529Z,49.30
2018-06-22T14:38:30.653Z,47.30
2018-06-22T14:40:59.703Z,47.40
2018-06-22T14:43:28.425Z,48.10
2018-06-22T14:45:57.689Z,44.20
2018-06-22T14:48:26.785Z,45.30
2018-06-22T14:50:55.760Z,44.40
2018-06-22T14:53:30.280Z,42.70
2018-06-22T14:56:04.893Z,43.70
2018-06-22T14:58:39.204Z,43.50
2018-06-22T15:01:13.553Z,43.50
2018-06-22T15:03:47.734Z,41.40
2018-06-22T15:06:21.791Z,41.30
2018-06-22T15:08:50.516Z,43.90
2018-06-22T15:11:19.128Z,45.40
2018-06-22T15:13:49.189Z,45.60
2018-06-22T15:16:17.964Z,47.00
2018-06-22T15:18:47.236Z,48.40
2018-06-22T15:21:15.859Z,50.10
2018-06-22T15:23:44.456Z,51.10
2018-06-22T15:26:13.126Z,51.90
2018-06-22T15:28:42.036Z,54.50
2018-06-22T15:31:10.961Z,56.80
2018-06-22T15:33:45.376Z,58.30
2018-06-22T15:36:19.882Z,57.40
2018-06-22T15:38:54.531Z,57.10
2018-06-22T15:41:29.062Z,57.40
2018-06-22T15:44:03.568Z,58.40
2018-06-22T15:46:38.218Z,59.30
2018-06-22T15:49:12.547Z,57.90
2018-06-22T15:51:46.823Z,57.30
2018-06-22T15:54:22.359Z,58.00
2018-06-22T15:56:51.141Z,57.80
2018-06-22T15:59:20.212Z,56.40
2018-06-22T16:01:49.109Z,57.00
2018-06-22T16:04:18.083Z,55.70
2018-06-22T16:06:47.016Z,56.90
2018-06-22T16:09:15.761Z,58.40
2018-06-22T16:11:44.447Z,59.20
2018-06-22T16:14:18.520Z,59.10
2018-06-22T16:16:52.637Z,61.30
2018-06-22T16:19:28.120Z,62.50
2018-06-22T16:22:02.703Z,62.50
2018-06-22T16:24:37.203Z,62.80
2018-06-22T16:27:07.759Z,62.70
2018-06-22T16:29:36.793Z,64.00
2018-06-22T16:32:05.799Z,63.60
2018-06-22T16:34:34.751Z,63.00
2018-06-22T16:37:03.714Z,62.30
2018-06-22T16:39:32.685Z,62.40
2018-06-22T16:42:03.276Z,63.20
2018-06-22T16:44:32.195Z,63.50
2018-06-22T16:47:01.271Z,63.60
2018-06-22T16:49:30.333Z,64.40
2018-06-22T16:51:59.316Z,65.20
2018-06-22T16:54:28.237Z,65.90
2018-06-22T16:59:26.034Z,66.10
2018-06-22T17:01:55.037Z,65.30
2018-06-22T17:04:23.982Z,65.60
2018-06-22T17:06:58.461Z,65.40
2018-06-22T17:09:33.001Z,65.60
2018-06-22T17:14:10.753Z,65.50
2018-06-22T17:16:45.123Z,65.90
2018-06-22T17:19:19.182Z,64.70
2018-06-22T17:21:48.061Z,63.50
2018-06-22T17:26:45.834Z,64.40
2018-06-22T17:29:14.856Z,64.40
2018-06-22T17:31:43.576Z,65.30
2018-06-22T17:34:12.218Z,65.40
2018-06-22T17:36:41.008Z,65.10
2018-06-22T17:39:11.399Z,64.60
2018-06-22T17:41:40.301Z,64.30
2018-06-22T17:44:09.248Z,64.10
2018-06-22T17:46:38.279Z,64.40
2018-06-22T17:49:07.207Z,64.40
2018-06-22T17:51:36.124Z,65.50
2018-06-22T17:54:05.608Z,65.80
2018-06-22T17:56:34.164Z,65.40
2018-06-22T17:59:08.386Z,65.40
2018-06-22T18:01:42.793Z,66.30
2018-06-22T18:06:25.816Z,65.60
2018-06-22T18:08:54.799Z,66.40
2018-06-22T18:11:29.338Z,66.50
2018-06-22T18:13:58.242Z,67.00
2018-06-22T18:16:27.434Z,65.80
2018-06-22T18:18:56.439Z,62.90
2018-06-22T18:21:25.459Z,63.30
2018-06-22T18:23:54.427Z,62.70
2018-06-22T18:26:23.407Z,62.40
2018-06-22T18:28:52.368Z,62.70
2018-06-22T18:31:21.129Z,62.80
2018-06-22T18:33:49.904Z,61.70
2018-06-22T18:36:18.663Z,62.20
2018-06-22T18:38:47.304Z,62.30
2018-06-22T18:41:15.984Z,62.70
2018-06-22T18:43:50.301Z,64.00
2018-06-22T18:46:19.173Z,63.60
2018-06-22T18:48:47.876Z,64.90
2018-06-22T18:51:16.806Z,66.40
2018-06-22T18:56:25.982Z,65.30
2018-06-22T18:59:01.292Z,65.60
2018-06-22T19:01:36.286Z,66.40
2018-06-22T19:04:05.024Z,65.50
2018-06-22T19:06:33.683Z,65.60
2018-06-22T19:09:02.364Z,67.50
2018-06-22T19:11:31.318Z,70.10
2018-06-22T19:14:00.229Z,71.90
2018-06-22T19:16:29.229Z,72.60
2018-06-22T19:18:58.261Z,73.20
2018-06-22T19:21:26.958Z,73.10
2018-06-22T19:23:55.585Z,72.80
2018-06-22T19:26:24.204Z,72.90
2018-06-22T19:28:52.833Z,73.30
2018-06-22T19:31:21.591Z,73.10
2018-06-22T19:41:15.984Z,72.20
2018-06-22T19:43:50.403Z,71.40
2018-06-22T19:46:24.958Z,72.00
2018-06-22T19:49:00.147Z,72.00
2018-06-22T19:51:34.340Z,73.10
2018-06-22T19:54:05.495Z,72.80
2018-06-22T19:56:34.176Z,72.40
2018-06-22T19:59:03.015Z,72.10
2018-06-22T20:01:32.151Z,72.00
2018-06-22T20:04:01.198Z,71.90
2018-06-22T20:06:30.150Z,72.40
2018-06-22T20:08:59.146Z,72.30
2018-06-22T20:11:28.603Z,72.60
2018-06-22T20:13:57.548Z,72.50
2018-06-22T20:16:26.834Z,72.50
2018-06-22T20:18:56.010Z,72.90
2018-06-22T20:21:24.889Z,73.40
2018-06-22T20:26:22.071Z,72.90
2018-06-22T20:28:50.732Z,73.10
2018-06-22T20:31:25.260Z,72.70
2018-06-22T20:33:54.336Z,72.40
2018-06-22T20:36:29.086Z,74.20
2018-06-22T20:39:03.529Z,73.30
2018-06-22T20:41:37.756Z,73.00
2018-06-22T20:44:12.061Z,73.80
2018-06-22T20:46:46.288Z,74.20
2018-06-22T20:49:20.696Z,73.50
2018-06-22T20:51:49.439Z,74.20
2018-06-22T20:54:18.124Z,73.10
2018-06-22T20:56:46.816Z,72.60
2018-06-22T20:59:15.514Z,72.50
2018-06-22T21:04:12.789Z,71.70
2018-06-22T21:06:41.494Z,71.50
2018-06-22T21:09:10.679Z,72.70
2018-06-22T21:14:08.358Z,73.60
2018-06-22T21:16:37.335Z,74.00
2018-06-22T21:19:06.320Z,74.10
2018-06-22T21:24:09.858Z,74.30
2018-06-22T21:26:38.531Z,74.30
2018-06-22T21:29:12.789Z,74.50
2018-06-22T21:31:46.880Z,74.20
2018-06-22T21:34:21.001Z,73.90
2018-06-22T21:36:55.223Z,73.90
2018-06-22T21:39:23.866Z,74.10
2018-06-22T21:44:21.666Z,74.70
2018-06-22T21:46:50.605Z,75.00
2018-06-22T21:49:19.514Z,75.50
2018-06-22T21:51:48.449Z,75.40
2018-06-22T21:54:17.331Z,74.80
2018-06-22T21:56:46.316Z,75.50
2018-06-22T21:59:15.183Z,75.60
2018-06-22T22:01:43.879Z,76.20
2018-06-22T22:04:12.476Z,76.10
2018-06-22T22:06:41.156Z,76.20
2018-06-22T22:11:44.651Z,76.50
2018-06-22T22:14:13.498Z,76.50
2018-06-22T22:16:42.453Z,75.70
2018-06-22T22:21:40.053Z,76.60
2018-06-22T22:24:09.026Z,76.90
2018-06-22T22:26:38.037Z,77.10
2018-06-22T22:29:07.800Z,75.90
2018-06-22T22:31:37.425Z,75.80
2018-06-22T22:34:06.393Z,77.10
2018-06-22T22:36:35.363Z,77.10
2018-06-22T22:39:07.202Z,77.10
2018-06-22T22:41:36.468Z,77.30
2018-06-22T22:44:05.646Z,77.40
2018-06-22T22:46:34.213Z,77.30
2018-06-22T22:49:03.106Z,77.10
2018-06-22T22:51:32.026Z,77.80
2018-06-22T22:54:00.760Z,76.80
2018-06-22T22:56:29.383Z,77.60
2018-06-22T22:58:58.278Z,76.90
2018-06-22T23:01:27.348Z,76.20
2018-06-22T23:03:55.936Z,76.70
2018-06-22T23:06:24.516Z,76.60
2018-06-22T23:08:53.108Z,77.30
2018-06-22T23:11:21.721Z,77.90
2018-06-22T23:13:50.355Z,78.20
2018-06-22T23:16:18.976Z,78.30
2018-06-22T23:18:47.551Z,78.30
2018-06-22T23:21:16.113Z,78.70
2018-06-22T23:23:44.848Z,77.50
2018-06-22T23:28:42.788Z,78.30
2018-06-22T23:31:11.401Z,78.90
2018-06-22T23:33:40.015Z,79.30
2018-06-22T23:36:08.633Z,79.70
2018-06-22T23:38:37.317Z,79.60
2018-06-22T23:41:06.096Z,79.80
2018-06-22T23:43:35.088Z,80.30
2018-06-22T23:46:04.131Z,80.30
2018-06-22T23:51:01.694Z,80.50
2018-06-22T23:53:30.613Z,80.50
2018-06-22T23:55:59.564Z,80.30
2018-06-22T23:58:28.451Z,80.10
